createdAt,value
2019-02-20T00:00:08.932Z,-0.80
2019-02-20T00:04:15.379Z,-0.90
2019-02-20T00:08:20.337Z,-1.00
2019-02-20T00:12:26.606Z,-1.10
2019-02-20T00:16:33.257Z,-0.90
2019-02-20T00:20:39.991Z,-0.90
2019-02-20T00:24:44.919Z,-1.00
2019-02-20T00:28:50.067Z,-1.10
2019-02-20T00:32:56.806Z,-1.10
2019-02-20T00:37:02.148Z,-1.50
2019-02-20T00:41:10.009Z,-1.20
2019-02-20T00:45:31.299Z,-1.30
2019-02-20T00:49:41.389Z,-1.00
2019-02-20T00:53:52.973Z,-1.60
2019-02-20T00:57:58.991Z,-1.20
2019-02-20T01:02:06.227Z,-1.60
2019-02-20T01:06:11.285Z,-1.20
2019-02-20T01:10:19.392Z,-1.40
2019-02-20T01:14:25.404Z,-1.10
2019-02-20T01:18:30.731Z,-1.20
2019-02-20T01:22:36.690Z,-1.30
2019-02-20T01:26:43.471Z,-1.30
2019-02-20T01:30:49.579Z,-1.30
2019-02-20T01:34:54.705Z,-1.30
2019-02-20T01:39:01.512Z,-1.60
2019-02-20T01:43:06.571Z,-1.50
2019-02-20T01:47:12.464Z,-1.30
2019-02-20T01:51:19.901Z,-1.30
2019-02-20T01:55:26.257Z,-1.50
2019-02-20T01:59:32.638Z,-1.50
2019-02-20T02:03:39.200Z,-1.60
2019-02-20T02:07:44.578Z,-1.60
2019-02-20T02:11:50.306Z,-1.40
2019-02-20T02:15:57.146Z,-1.50
2019-02-20T02:20:02.380Z,-1.40
2019-02-20T02:24:08.975Z,-1.40
2019-02-20T02:28:15.774Z,-1.50
2019-02-20T02:32:22.851Z,-1.60
2019-02-20T02:36:27.714Z,-1.80
2019-02-20T02:40:33.056Z,-1.60
2019-02-20T02:44:38.655Z,-1.70
2019-02-20T02:48:43.557Z,-1.60
2019-02-20T02:52:55.339Z,-1.70
2019-02-20T02:57:00.349Z,-1.70
2019-02-20T03:01:06.880Z,-1.60
2019-02-20T03:05:12.447Z,-1.90
2019-02-20T03:09:17.952Z,-1.70
2019-02-20T03:13:23.114Z,-1.50
2019-02-20T03:17:30.286Z,-1.70
2019-02-20T03:21:36.298Z,-1.60
2019-02-20T03:25:42.368Z,-1.40
2019-02-20T03:29:48.474Z,-1.40
2019-02-20T03:33:55.399Z,-1.60
2019-02-20T03:38:02.870Z,-1.50
2019-02-20T03:42:10.200Z,-1.80
2019-02-20T03:46:16.626Z,-1.80
2019-02-20T03:50:22.609Z,-1.80
2019-02-20T03:54:30.255Z,-1.80
2019-02-20T03:58:35.272Z,-1.60
2019-02-20T04:02:41.861Z,-1.80
2019-02-20T04:06:49.021Z,-1.60
2019-02-20T04:10:57.171Z,-1.50
2019-02-20T04:15:02.512Z,-1.30
2019-02-20T04:19:08.876Z,-1.10
2019-02-20T04:23:14.462Z,-0.90
2019-02-20T04:27:19.862Z,-0.90
2019-02-20T04:31:25.355Z,-1.20
2019-02-20T04:35:30.464Z,-1.20
2019-02-20T04:39:37.547Z,-1.10
2019-02-20T04:43:43.241Z,-1.00
2019-02-20T04:47:49.521Z,-0.80
2019-02-20T04:51:56.440Z,-0.80
2019-02-20T04:56:01.968Z,-0.80
2019-02-20T05:00:08.426Z,-0.70
2019-02-20T05:04:14.769Z,-0.90
2019-02-20T05:08:19.661Z,-0.40
2019-02-20T05:12:25.588Z,-0.40
2019-02-20T05:16:31.769Z,-0.30
2019-02-20T05:20:37.833Z,-0.30
2019-02-20T05:24:43.302Z,-0.20
2019-02-20T05:28:48.935Z,-0.20
2019-02-20T05:32:55.116Z,-0.40
2019-02-20T05:37:01.134Z,-0.70
2019-02-20T05:41:07.579Z,-0.40
2019-02-20T05:45:13.986Z,-0.80
2019-02-20T05:49:20.903Z,-0.60
2019-02-20T05:53:26.554Z,-1.10
2019-02-20T05:57:33.018Z,-0.70
2019-02-20T06:01:37.950Z,-0.60
2019-02-20T06:05:43.402Z,-0.60
2019-02-20T06:09:48.733Z,-0.50
2019-02-20T06:13:54.138Z,-0.40
2019-02-20T06:18:01.122Z,-0.10
2019-02-20T06:22:07.583Z,-0.10
2019-02-20T06:26:14.328Z,0.20
2019-02-20T06:30:20.751Z,0.30
2019-02-20T06:34:26.174Z,0.50
2019-02-20T06:38:33.592Z,0.50
2019-02-20T06:42:39.653Z,0.60
2019-02-20T06:46:45.961Z,0.60
2019-02-20T06:50:51.347Z,0.80
2019-02-20T06:54:57.083Z,0.90
2019-02-20T06:59:02.937Z,1.00
2019-02-20T07:03:08.609Z,1.10
2019-02-20T07:07:39.477Z,1.20
2019-02-20T07:12:20.018Z,1.50
2019-02-20T07:17:18.157Z,1.50
2019-02-20T07:22:07.677Z,1.60
2019-02-20T07:27:11.422Z,1.90
2019-02-20T07:31:17.363Z,2.20
2019-02-20T07:35:23.162Z,2.40
2019-02-20T07:39:29.149Z,2.70
2019-02-20T07:43:34.061Z,2.90
2019-02-20T07:47:40.043Z,3.00
2019-02-20T07:51:46.459Z,3.50
2019-02-20T07:55:55.415Z,4.10
2019-02-20T08:00:00.443Z,4.50
2019-02-20T08:04:05.839Z,4.90
2019-02-20T08:08:11.282Z,5.10
2019-02-20T08:12:16.282Z,5.10
2019-02-20T08:16:22.021Z,5.20
2019-02-20T08:20:28.861Z,5.20
2019-02-20T08:24:35.923Z,5.30
2019-02-20T08:28:42.062Z,5.60
2019-02-20T08:32:50.039Z,6.00
2019-02-20T08:36:57.208Z,6.30
2019-02-20T08:41:03.499Z,6.70
2019-02-20T08:45:09.276Z,7.00
2019-02-20T08:49:14.643Z,7.10
2019-02-20T08:53:20.197Z,7.70
2019-02-20T08:57:27.106Z,8.50
2019-02-20T09:01:33.286Z,8.90
2019-02-20T09:05:38.855Z,9.40
2019-02-20T09:09:43.861Z,9.60
2019-02-20T09:13:49.875Z,10.00
2019-02-20T09:17:55.890Z,10.40
2019-02-20T09:22:01.229Z,10.20
2019-02-20T09:26:06.869Z,10.00
2019-02-20T09:30:13.874Z,10.40
2019-02-20T09:34:20.314Z,10.30
2019-02-20T09:38:25.530Z,10.10
2019-02-20T09:42:30.557Z,10.20
2019-02-20T09:46:36.451Z,10.50
2019-02-20T09:50:43.210Z,10.50
2019-02-20T09:54:49.272Z,10.60
2019-02-20T09:58:54.888Z,10.60
2019-02-20T10:03:00.165Z,10.90
2019-02-20T10:07:09.272Z,11.10
2019-02-20T10:11:16.571Z,11.40
2019-02-20T10:15:25.091Z,11.20
2019-02-20T10:19:30.222Z,11.10
2019-02-20T10:23:36.430Z,11.40
2019-02-20T10:27:41.393Z,11.30
2019-02-20T10:31:49.227Z,12.00
2019-02-20T10:35:56.773Z,12.00
2019-02-20T10:40:01.680Z,11.60
2019-02-20T10:44:07.824Z,11.50
2019-02-20T10:48:13.168Z,11.80
2019-02-20T10:52:19.185Z,11.90
2019-02-20T10:56:24.425Z,12.00
2019-02-20T11:00:31.979Z,12.00
2019-02-20T11:04:36.973Z,12.20
2019-02-20T11:08:43.322Z,13.10
2019-02-20T11:12:50.096Z,13.20
2019-02-20T11:16:57.461Z,12.80
2019-02-20T11:21:02.539Z,12.70
2019-02-20T11:25:14.095Z,13.30
2019-02-20T11:29:19.805Z,14.00
2019-02-20T11:33:25.257Z,13.70
2019-02-20T11:37:30.494Z,14.40
2019-02-20T11:41:36.326Z,15.00
2019-02-20T11:45:42.439Z,14.80
2019-02-20T11:49:48.315Z,15.60
2019-02-20T11:53:54.167Z,16.60
2019-02-20T11:58:01.003Z,18.00
2019-02-20T12:02:08.526Z,18.50
2019-02-20T12:06:13.786Z,20.00
2019-02-20T12:10:20.718Z,19.80
2019-02-20T12:14:26.289Z,19.90
2019-02-20T12:18:33.103Z,20.60
2019-02-20T12:22:39.790Z,19.40
2019-02-20T12:26:45.474Z,19.00
2019-02-20T12:30:51.599Z,19.30
2019-02-20T12:34:58.737Z,19.40
2019-02-20T12:39:06.906Z,18.00
2019-02-20T12:43:11.961Z,16.90
2019-02-20T12:47:17.349Z,16.80
2019-02-20T12:51:22.894Z,17.50
2019-02-20T12:55:29.290Z,17.10
2019-02-20T12:59:34.289Z,17.30
2019-02-20T13:03:40.694Z,17.10
2019-02-20T13:07:47.055Z,17.10
2019-02-20T13:11:53.638Z,18.00
2019-02-20T13:15:59.236Z,18.80
2019-02-20T13:20:05.047Z,20.00
2019-02-20T13:24:12.855Z,20.00
2019-02-20T13:28:18.191Z,19.50
2019-02-20T13:32:23.137Z,19.60
2019-02-20T13:36:28.157Z,19.80
2019-02-20T13:40:33.098Z,19.30
2019-02-20T13:44:38.086Z,18.90
2019-02-20T13:48:43.242Z,17.90
2019-02-20T13:52:52.348Z,17.40
2019-02-20T13:57:01.579Z,17.40
2019-02-20T14:01:01.796Z,16.80
2019-02-20T14:05:07.396Z,16.40
2019-02-20T14:09:15.150Z,15.90
2019-02-20T14:13:21.172Z,15.40
2019-02-20T14:17:26.914Z,15.40
2019-02-20T14:21:32.007Z,15.20
2019-02-20T14:25:37.923Z,15.10
2019-02-20T14:29:42.967Z,15.00
2019-02-20T14:33:47.911Z,14.90
2019-02-20T14:37:52.840Z,14.50
2019-02-20T14:41:57.834Z,14.40
2019-02-20T14:46:02.708Z,14.10
2019-02-20T14:50:08.581Z,13.90
2019-02-20T14:54:13.901Z,13.70
2019-02-20T14:58:19.850Z,13.50
2019-02-20T15:02:25.855Z,13.30
2019-02-20T15:06:31.783Z,13.10
2019-02-20T15:10:36.728Z,12.90
2019-02-20T15:14:41.645Z,12.70
2019-02-20T15:18:46.618Z,12.40
2019-02-20T15:22:51.522Z,12.40
2019-02-20T15:26:56.586Z,12.30
2019-02-20T15:31:02.214Z,12.10
2019-02-20T15:35:07.818Z,12.00
2019-02-20T15:39:13.029Z,11.70
2019-02-20T15:43:17.997Z,11.30
2019-02-20T15:47:22.900Z,11.00
2019-02-20T15:51:27.972Z,10.80
2019-02-20T15:55:32.884Z,10.30
2019-02-20T15:59:38.179Z,10.00
2019-02-20T16:03:43.102Z,9.70
2019-02-20T16:07:48.203Z,9.50
2019-02-20T16:11:53.112Z,9.40
2019-02-20T16:15:58.096Z,9.10
2019-02-20T16:20:02.977Z,8.80
2019-02-20T16:24:08.338Z,8.60
2019-02-20T16:28:13.270Z,8.40
2019-02-20T16:32:18.198Z,8.20
2019-02-20T16:36:23.082Z,7.90
2019-02-20T16:40:28.009Z,7.80
2019-02-20T16:44:33.091Z,7.70
2019-02-20T16:48:38.442Z,7.60
2019-02-20T16:52:43.660Z,7.40
2019-02-20T16:56:48.500Z,7.20
2019-02-20T17:00:53.678Z,7.10
2019-02-20T17:04:59.280Z,7.00
2019-02-20T17:09:07.389Z,6.90
2019-02-20T17:13:12.341Z,6.80
2019-02-20T17:17:17.425Z,6.70
2019-02-20T17:21:22.335Z,6.60
2019-02-20T17:25:27.519Z,6.50
2019-02-20T17:29:32.699Z,6.50
2019-02-20T17:33:37.807Z,6.40
2019-02-20T17:37:42.686Z,6.30
2019-02-20T17:41:47.762Z,6.30
2019-02-20T17:45:53.090Z,6.30
2019-02-20T17:49:58.367Z,6.30
2019-02-20T17:54:03.523Z,6.20
2019-02-20T17:58:14.835Z,6.20
2019-02-20T18:02:15.069Z,6.10
2019-02-20T18:06:19.993Z,6.00
2019-02-20T18:10:25.068Z,5.90
2019-02-20T18:14:29.970Z,5.80
2019-02-20T18:18:34.935Z,5.60
2019-02-20T18:22:39.900Z,5.50
2019-02-20T18:26:44.857Z,5.50
2019-02-20T18:30:49.954Z,5.40
2019-02-20T18:34:54.934Z,5.40
2019-02-20T18:38:59.973Z,5.30
2019-02-20T18:43:04.941Z,5.20
2019-02-20T18:47:09.842Z,5.20
2019-02-20T18:51:15.248Z,5.10
2019-02-20T18:55:20.454Z,5.10
2019-02-20T18:59:25.709Z,5.00
2019-02-20T19:03:30.744Z,4.90
2019-02-20T19:07:36.053Z,4.90
2019-02-20T19:12:02.856Z,4.90
2019-02-20T19:17:01.814Z,4.80
2019-02-20T19:22:02.920Z,4.80
2019-02-20T19:26:42.336Z,4.80
2019-02-20T19:31:23.786Z,4.60
2019-02-20T19:36:14.725Z,4.50
2019-02-20T19:41:18.487Z,4.50
2019-02-20T19:46:00.500Z,4.50
2019-02-20T19:50:29.657Z,4.30
2019-02-20T19:55:16.901Z,4.40
2019-02-20T19:59:54.588Z,4.40
2019-02-20T20:04:08.081Z,4.40
2019-02-20T20:08:35.449Z,4.40
2019-02-20T20:12:59.346Z,4.20
2019-02-20T20:17:16.120Z,4.20
2019-02-20T20:21:58.657Z,4.20
2019-02-20T20:26:36.469Z,4.10
2019-02-20T20:31:20.664Z,4.00
2019-02-20T20:36:15.409Z,4.10
2019-02-20T20:40:44.186Z,4.20
2019-02-20T20:45:04.520Z,4.30
2019-02-20T20:49:53.727Z,4.20
2019-02-20T20:54:37.740Z,4.30
2019-02-20T20:58:55.279Z,4.30
2019-02-20T21:03:05.239Z,4.30
2019-02-20T21:07:38.269Z,4.20
2019-02-20T21:12:26.019Z,4.20
2019-02-20T21:16:53.146Z,4.10
2019-02-20T21:21:51.174Z,4.10
2019-02-20T21:26:26.360Z,4.10
2019-02-20T21:31:21.972Z,4.10
2019-02-20T21:35:59.358Z,3.90
2019-02-20T21:40:26.976Z,4.00
2019-02-20T21:45:13.543Z,3.90
2019-02-20T21:49:49.036Z,3.90
2019-02-20T21:54:20.722Z,3.90
2019-02-20T21:58:50.540Z,3.90
2019-02-20T22:03:51.988Z,3.70
2019-02-20T22:08:09.977Z,3.80
2019-02-20T22:12:50.940Z,3.80
2019-02-20T22:17:22.609Z,3.90
2019-02-20T22:22:02.979Z,4.00
2019-02-20T22:26:47.822Z,4.10
2019-02-20T22:31:38.477Z,4.00
2019-02-20T22:36:08.472Z,4.00
2019-02-20T22:40:36.007Z,3.80
2019-02-20T22:45:13.656Z,3.80
2019-02-20T22:49:53.309Z,3.70
2019-02-20T22:54:41.946Z,3.50
2019-02-20T22:59:20.295Z,3.30
2019-02-20T23:03:34.364Z,3.10
2019-02-20T23:08:31.847Z,3.00
2019-02-20T23:13:22.522Z,2.70
2019-02-20T23:17:27.715Z,2.70
2019-02-20T23:21:32.902Z,2.50
2019-02-20T23:25:37.828Z,2.50
2019-02-20T23:29:42.763Z,2.40
2019-02-20T23:33:47.649Z,2.30
2019-02-20T23:37:52.589Z,2.30
2019-02-20T23:41:57.609Z,2.20
2019-02-20T23:46:02.526Z,2.10
2019-02-20T23:50:07.725Z,2.00
2019-02-20T23:54:12.617Z,1.90
2019-02-20T23:58:17.573Z,1.90
